Time;durP1;ratioP1;P1;durP2;ratioP2;P2;SDS_P1;SDS_P2;PMS_P1;PMS_P2;Temp;Humidity;BMP_temperature;BMP_pressure;BME280_temperature;BME280_humidity;BME280_pressure;Samples;Min_cycle;Max_cycle;Signal;HPM_P1;HPM_P2
2022/07/01 05:00:39;;;;;;;0.90;0.70;;;18.30;97.20;;;;;;1719373;28;20187;-68
2022/07/01 05:01:30;;;;;;;1.58;0.73;;;18.30;97.20;;;;;;1714374;28;20202;-67
2022/07/01 05:02:22;;;;;;;1.50;0.85;;;18.30;97.20;;;;;;1715022;28;20574;-67
2022/07/01 05:03:13;;;;;;;1.00;0.73;;;18.30;97.20;;;;;;1714081;28;20205;-67
2022/07/01 05:04:04;;;;;;;1.10;0.70;;;18.30;97.20;;;;;;1718772;28;20349;-67
2022/07/01 05:04:55;;;;;;;1.85;0.70;;;18.30;97.20;;;;;;1720555;28;20193;-67
2022/07/01 05:05:46;;;;;;;0.90;0.70;;;18.30;97.20;;;;;;1718209;28;20222;-68
2022/07/01 05:06:38;;;;;;;1.10;0.70;;;18.30;97.20;;;;;;1713783;28;20237;-67
2022/07/01 05:07:29;;;;;;;1.25;1.08;;;18.30;97.20;;;;;;1714051;28;20212;-68
2022/07/01 05:08:20;;;;;;;1.10;1.00;;;18.30;97.20;;;;;;1720755;28;20235;-67
2022/07/01 05:09:12;;;;;;;1.03;0.83;;;18.30;97.20;;;;;;1715150;28;20198;-67
2022/07/01 05:10:04;;;;;;;1.00;0.90;;;18.30;97.20;;;;;;1718448;28;20197;-67
2022/07/01 05:10:55;;;;;;;2.85;0.80;;;18.30;97.20;;;;;;1720479;28;20225;-67
2022/07/01 05:11:47;;;;;;;1.05;0.95;;;18.30;97.20;;;;;;1718511;28;20213;-68
2022/07/01 05:12:38;;;;;;;2.17;0.90;;;18.30;97.20;;;;;;1714124;28;20220;-68
2022/07/01 05:13:30;;;;;;;1.47;0.90;;;18.30;97.20;;;;;;1714148;28;20205;-67
2022/07/01 05:14:20;;;;;;;1.50;0.90;;;18.30;97.20;;;;;;1720645;28;20201;-68
2022/07/01 05:15:12;;;;;;;0.90;0.70;;;18.30;97.20;;;;;;1720295;28;20759;-67
2022/07/01 05:16:06;;;;;;;0.95;0.75;;;18.30;97.20;;;;;;1716207;28;20216;-67
2022/07/01 05:16:57;;;;;;;1.55;0.88;;;18.30;97.20;;;;;;1716965;28;20200;-67
2022/07/01 05:22:26;;;;;;;1.77;0.68;;;18.30;97.20;;;;;;1714228;28;20217;-68
2022/07/01 05:23:17;;;;;;;1.33;0.93;;;18.30;97.20;;;;;;1719859;28;20208;-68
2022/07/01 05:24:09;;;;;;;1.53;0.70;;;18.30;97.20;;;;;;1720440;28;20236;-68
2022/07/01 05:25:01;;;;;;;1.52;1.05;;;18.30;97.20;;;;;;1716910;28;20557;-68
2022/07/01 05:25:52;;;;;;;3.15;1.00;;;18.30;97.20;;;;;;1716126;28;20304;-68
2022/07/01 05:26:44;;;;;;;1.23;0.80;;;18.30;97.20;;;;;;1720151;28;20251;-68
2022/07/01 05:27:35;;;;;;;1.30;1.00;;;18.30;97.20;;;;;;1720424;28;20220;-68
2022/07/01 05:28:27;;;;;;;2.80;0.98;;;18.30;97.20;;;;;;1713941;28;20205;-68
2022/07/01 05:29:17;;;;;;;1.10;0.82;;;18.30;97.20;;;;;;1714054;28;20197;-68
2022/07/01 05:30:10;;;;;;;1.10;0.80;;;18.30;97.20;;;;;;1718305;28;20280;-68
2022/07/01 05:31:01;;;;;;;3.28;1.08;;;18.30;97.20;;;;;;1720517;28;20216;-68
2022/07/01 05:31:54;;;;;;;1.50;1.05;;;18.30;97.20;;;;;;1718301;28;20208;-68
2022/07/01 05:32:45;;;;;;;2.60;1.10;;;18.40;97.20;;;;;;1715080;28;20209;-68
2022/07/01 05:33:37;;;;;;;1.37;1.10;;;18.40;97.20;;;;;;1720469;28;20281;-68
2022/07/01 05:34:27;;;;;;;1.60;1.25;;;18.40;97.20;;;;;;1720753;28;20208;-68
2022/07/01 05:35:19;;;;;;;2.87;1.20;;;18.40;97.20;;;;;;1720269;28;20732;-68
2022/07/01 05:36:10;;;;;;;1.98;1.20;;;18.40;97.20;;;;;;1715847;28;20657;-69
2022/07/01 05:37:02;;;;;;;2.23;1.10;;;18.40;97.20;;;;;;1716876;28;20661;-68
2022/07/01 05:37:52;;;;;;;1.20;1.00;;;18.40;97.20;;;;;;1720195;28;20991;-68
2022/07/01 05:38:44;;;;;;;2.57;1.40;;;18.40;97.20;;;;;;1719824;28;20656;-68
2022/07/01 05:39:35;;;;;;;2.10;1.40;;;18.40;97.20;;;;;;1714040;28;20216;-68
2022/07/01 05:40:27;;;;;;;1.43;0.93;;;18.40;97.20;;;;;;1714340;28;20737;-68
2022/07/01 05:41:18;;;;;;;2.10;1.17;;;18.40;97.20;;;;;;1718440;28;20212;-68
2022/07/01 05:42:10;;;;;;;3.55;1.23;;;18.40;97.20;;;;;;1717621;28;20224;-68
2022/07/01 05:43:01;;;;;;;1.85;1.30;;;18.40;97.20;;;;;;1716502;28;20198;-68
2022/07/01 05:43:51;;;;;;;2.70;1.10;;;18.40;97.20;;;;;;1718774;28;20593;-68
2022/07/01 05:44:43;;;;;;;2.03;1.20;;;18.40;97.20;;;;;;1713940;28;20552;-68
2022/07/01 05:45:34;;;;;;;1.92;1.08;;;18.40;97.20;;;;;;1713920;28;20225;-68
2022/07/01 05:46:26;;;;;;;1.20;1.03;;;18.40;97.20;;;;;;1718492;28;20708;-68
2022/07/01 05:47:18;;;;;;;3.85;1.08;;;18.40;97.20;;;;;;1715660;28;20284;-68
2022/07/01 05:48:09;;;;;;;1.27;1.00;;;18.40;97.20;;;;;;1716995;28;20202;-68
2022/07/01 05:49:00;;;;;;;1.50;1.23;;;18.40;97.20;;;;;;1718493;28;20243;-68
2022/07/01 05:49:52;;;;;;;4.07;1.10;;;18.40;97.20;;;;;;1714348;28;20296;-68
2022/07/01 05:50:43;;;;;;;1.52;1.23;;;18.40;97.20;;;;;;1720618;28;20562;-68
2022/07/01 05:51:35;;;;;;;1.43;1.07;;;18.40;97.20;;;;;;1714170;28;20220;-68
2022/07/01 05:52:25;;;;;;;2.08;1.20;;;18.40;97.20;;;;;;1718963;28;20205;-68
2022/07/01 05:53:17;;;;;;;1.60;1.30;;;18.40;97.20;;;;;;1716671;28;20280;-68
2022/07/01 05:54:09;;;;;;;1.25;1.08;;;18.50;97.20;;;;;;1716316;28;20205;-68
2022/07/01 05:55:00;;;;;;;1.63;1.27;;;18.50;97.20;;;;;;1720261;28;20205;-68
2022/07/01 05:55:52;;;;;;;1.35;0.85;;;18.50;97.20;;;;;;1720087;28;20252;-68
2022/07/01 05:56:43;;;;;;;6.47;1.10;;;18.40;97.20;;;;;;1713749;28;20214;-68
2022/07/01 05:57:35;;;;;;;0.90;0.80;;;18.50;97.20;;;;;;1713925;28;20204;-68
2022/07/01 05:58:25;;;;;;;3.15;1.20;;;18.50;97.20;;;;;;1717948;28;20205;-68
2022/07/01 05:59:17;;;;;;;1.20;0.90;;;18.50;97.20;;;;;;1720269;28;20272;-68
2022/07/01 06:00:09;;;;;;;1.15;0.95;;;18.40;97.20;;;;;;1718314;28;20220;-68
2022/07/01 06:01:01;;;;;;;1.48;1.08;;;18.50;97.20;;;;;;1714274;28;20740;-68
2022/07/01 06:01:52;;;;;;;1.20;0.90;;;18.40;97.20;;;;;;1720575;28;20205;-68
2022/07/01 06:02:45;;;;;;;1.73;1.00;;;18.40;97.20;;;;;;1720073;28;20212;-68
2022/07/01 06:03:37;;;;;;;1.30;1.08;;;18.50;97.20;;;;;;1720233;28;20205;-68
2022/07/01 06:04:27;;;;;;;2.45;1.45;;;18.40;97.20;;;;;;1716122;28;20209;-68
2022/07/01 06:05:19;;;;;;;1.50;0.90;;;18.40;97.20;;;;;;1713726;28;20233;-68
2022/07/01 06:06:10;;;;;;;1.08;0.85;;;18.40;97.20;;;;;;1715470;28;20225;-68
2022/07/01 06:07:02;;;;;;;2.03;0.83;;;18.40;97.20;;;;;;1719346;28;20682;-68
2022/07/01 06:07:52;;;;;;;2.47;1.33;;;18.40;97.20;;;;;;1713741;28;20209;-68
2022/07/01 06:08:44;;;;;;;1.23;0.90;;;18.40;97.20;;;;;;1719663;28;20203;-68
2022/07/01 06:09:35;;;;;;;1.70;0.90;;;18.40;97.20;;;;;;1715289;28;20198;-68
2022/07/01 06:10:27;;;;;;;1.83;1.07;;;18.40;97.20;;;;;;1714835;28;20198;-68
2022/07/01 06:11:18;;;;;;;2.58;1.27;;;18.50;97.20;;;;;;1713834;28;20669;-68
2022/07/01 06:12:10;;;;;;;1.67;0.90;;;18.50;97.20;;;;;;1714718;28;20647;-68
2022/07/01 06:13:01;;;;;;;2.00;0.93;;;18.40;97.20;;;;;;1720156;28;20215;-68
2022/07/01 06:13:53;;;;;;;3.33;1.00;;;18.50;97.20;;;;;;1720472;28;20682;-68
2022/07/01 06:14:43;;;;;;;2.65;1.10;;;18.50;97.20;;;;;;1714411;28;20210;-68
2022/07/01 06:15:35;;;;;;;1.70;1.10;;;18.50;97.20;;;;;;1718010;28;20217;-68
2022/07/01 06:16:26;;;;;;;5.22;1.30;;;18.40;97.20;;;;;;1716824;28;20205;-68
2022/07/01 06:17:18;;;;;;;2.03;1.00;;;18.50;97.20;;;;;;1713483;28;20190;-68
2022/07/01 06:18:10;;;;;;;1.88;1.00;;;18.40;97.20;;;;;;1714595;28;20221;-69
2022/07/01 06:19:02;;;;;;;1.30;0.98;;;18.50;97.20;;;;;;1720211;28;20690;-68
2022/07/01 06:19:53;;;;;;;9.13;1.05;;;18.40;97.20;;;;;;1720397;28;20201;-69
2022/07/01 06:20:45;;;;;;;1.20;0.83;;;18.40;97.20;;;;;;1714611;28;20284;-68
2022/07/01 06:21:35;;;;;;;2.15;1.00;;;18.50;97.20;;;;;;1717765;28;20815;-68
2022/07/01 06:22:27;;;;;;;1.60;0.97;;;18.40;97.20;;;;;;1717299;28;20319;-68
2022/07/01 06:23:18;;;;;;;2.67;1.00;;;18.40;97.20;;;;;;1713797;28;20574;-68
2022/07/01 06:24:10;;;;;;;2.30;1.13;;;18.40;97.20;;;;;;1713906;28;20233;-68
2022/07/01 06:25:02;;;;;;;1.85;1.02;;;18.40;97.20;;;;;;1720473;28;20440;-68
2022/07/01 06:25:53;;;;;;;2.13;1.30;;;18.40;97.20;;;;;;1720129;28;20671;-68
2022/07/01 06:26:46;;;;;;;1.17;0.93;;;18.40;97.20;;;;;;1714965;28;20662;-68
2022/07/01 06:27:40;;;;;;;1.30;1.00;;;18.40;97.20;;;;;;1713826;28;20610;-68
2022/07/01 06:28:31;;;;;;;1.35;0.77;;;18.40;97.20;;;;;;1716201;28;20641;-68
2022/07/01 06:29:22;;;;;;;2.50;0.98;;;18.40;97.20;;;;;;1718603;28;20197;-68
2022/07/01 06:30:14;;;;;;;1.23;0.90;;;18.40;97.20;;;;;;1713994;28;20202;-68
2022/07/01 06:31:06;;;;;;;3.65;1.05;;;18.40;97.20;;;;;;1720506;28;20201;-70
2022/07/01 06:31:57;;;;;;;1.52;0.90;;;18.40;97.20;;;;;;1720246;28;20205;-68
2022/07/01 06:32:49;;;;;;;2.93;1.70;;;18.40;97.20;;;;;;1715088;28;20228;-68
2022/07/01 06:33:41;;;;;;;1.42;0.80;;;18.40;97.20;;;;;;1717385;28;20650;-68
2022/07/01 06:34:33;;;;;;;2.58;0.90;;;18.40;97.20;;;;;;1720114;28;20288;-68
2022/07/01 06:35:24;;;;;;;1.58;1.00;;;18.50;97.20;;;;;;1718504;28;20235;-68
2022/07/01 06:36:16;;;;;;;1.33;0.83;;;18.50;97.20;;;;;;1713777;28;20760;-68
2022/07/01 06:37:07;;;;;;;2.30;0.90;;;18.50;97.20;;;;;;1720257;28;20725;-68
2022/07/01 06:37:59;;;;;;;5.22;0.90;;;18.50;97.20;;;;;;1714063;28;20194;-68
2022/07/01 06:38:50;;;;;;;1.30;1.20;;;18.50;97.20;;;;;;1718410;28;20656;-68
2022/07/01 06:39:41;;;;;;;1.63;0.90;;;18.50;97.20;;;;;;1716550;28;20679;-68
2022/07/01 06:40:32;;;;;;;3.95;1.05;;;18.50;97.20;;;;;;1716032;28;20653;-68
2022/07/01 06:41:27;;;;;;;1.10;0.90;;;18.50;97.20;;;;;;1719019;28;20635;-68
2022/07/01 06:42:18;;;;;;;1.10;0.88;;;18.50;97.20;;;;;;1713753;28;20441;-68
2022/07/01 06:43:09;;;;;;;0.90;0.80;;;18.50;97.20;;;;;;1713683;28;20198;-68
2022/07/01 06:44:02;;;;;;;1.20;1.10;;;18.50;97.20;;;;;;1719742;28;20444;-68
2022/07/01 06:44:54;;;;;;;1.85;1.00;;;18.50;97.20;;;;;;1720083;28;20263;-68
2022/07/01 06:45:44;;;;;;;2.42;1.10;;;18.50;97.20;;;;;;1716093;28;20714;-68
2022/07/01 06:46:36;;;;;;;1.50;1.03;;;18.50;97.20;;;;;;1713453;28;20632;-68
2022/07/01 06:47:27;;;;;;;1.65;1.00;;;18.40;97.20;;;;;;1715108;28;20210;-68
2022/07/01 06:48:19;;;;;;;2.30;1.00;;;18.50;97.20;;;;;;1720023;28;20660;-68
2022/07/01 06:49:11;;;;;;;1.45;1.10;;;18.50;97.20;;;;;;1720386;28;20680;-68
2022/07/01 06:50:03;;;;;;;2.03;1.00;;;18.50;97.20;;;;;;1714053;28;20237;-68
2022/07/01 06:50:54;;;;;;;1.10;0.90;;;18.40;97.20;;;;;;1718468;28;20197;-68
2022/07/01 06:51:45;;;;;;;1.47;0.90;;;18.40;97.20;;;;;;1719659;28;20284;-68
2022/07/01 06:52:36;;;;;;;3.15;1.08;;;18.40;97.20;;;;;;1719807;28;20548;-68
2022/07/01 06:53:28;;;;;;;1.33;1.23;;;18.40;97.20;;;;;;1720695;28;20317;-68
2022/07/01 06:54:19;;;;;;;1.30;1.00;;;18.40;97.20;;;;;;1721226;28;20606;-68
2022/07/01 06:55:11;;;;;;;1.33;0.90;;;18.40;97.20;;;;;;1714911;28;20236;-68
2022/07/01 06:56:02;;;;;;;1.30;1.20;;;18.40;97.20;;;;;;1720925;28;20220;-68
2022/07/01 06:56:54;;;;;;;1.48;1.00;;;18.40;97.20;;;;;;1720759;28;20281;-68
2022/07/01 06:57:45;;;;;;;1.63;1.17;;;18.40;97.20;;;;;;1717600;28;20194;-68
2022/07/01 06:58:37;;;;;;;2.33;1.23;;;18.40;97.20;;;;;;1714896;28;20293;-68
2022/07/01 06:59:28;;;;;;;1.80;1.38;;;18.40;97.20;;;;;;1715790;28;20556;-68
2022/07/01 07:00:20;;;;;;;2.50;1.57;;;18.40;97.20;;;;;;1721509;28;20279;-68
2022/07/01 07:01:11;;;;;;;3.92;1.25;;;18.40;97.20;;;;;;1714953;28;20436;-68
2022/07/01 07:02:03;;;;;;;1.65;1.20;;;18.40;97.20;;;;;;1720182;28;20288;-68
2022/07/01 07:02:55;;;;;;;6.40;1.35;;;18.40;97.20;;;;;;1721345;28;20205;-68
2022/07/01 07:03:46;;;;;;;1.65;1.10;;;18.40;97.20;;;;;;1717993;28;20201;-68
2022/07/01 07:04:39;;;;;;;1.20;1.10;;;18.40;97.20;;;;;;1716932;28;20233;-68
2022/07/01 07:05:30;;;;;;;1.35;1.17;;;18.40;97.20;;;;;;1720310;28;20256;-68
2022/07/01 07:06:22;;;;;;;1.20;1.10;;;18.40;97.20;;;;;;1715053;28;20204;-68
2022/07/01 07:07:13;;;;;;;1.40;1.08;;;18.40;97.20;;;;;;1714604;28;20209;-68
2022/07/01 07:08:05;;;;;;;1.20;1.10;;;18.40;97.20;;;;;;1719636;28;20221;-68
2022/07/01 07:08:56;;;;;;;1.20;1.00;;;18.40;97.20;;;;;;1717459;28;20198;-68
2022/07/01 07:09:47;;;;;;;1.63;1.00;;;18.40;97.20;;;;;;1714826;28;20293;-68
2022/07/01 07:10:38;;;;;;;2.25;1.40;;;18.40;97.20;;;;;;1715743;28;20202;-68
2022/07/01 07:11:30;;;;;;;2.43;1.20;;;18.40;97.20;;;;;;1721257;28;20240;-68
2022/07/01 07:12:21;;;;;;;1.58;1.42;;;18.40;97.20;;;;;;1714809;28;20202;-68
2022/07/01 07:13:12;;;;;;;3.43;1.70;;;18.50;97.20;;;;;;1719808;28;20287;-68
2022/07/01 07:14:04;;;;;;;1.90;1.70;;;18.50;97.20;;;;;;1721242;28;20197;-69
2022/07/01 07:14:55;;;;;;;2.15;1.77;;;18.50;97.20;;;;;;1718729;28;20212;-68
2022/07/01 07:15:47;;;;;;;3.57;2.10;;;18.50;97.20;;;;;;1715917;28;20212;-68
2022/07/01 07:16:38;;;;;;;1.70;1.60;;;18.50;97.20;;;;;;1720958;28;20209;-68
2022/07/01 07:17:29;;;;;;;1.80;1.30;;;18.50;97.20;;;;;;1714981;28;20325;-68
2022/07/01 07:18:20;;;;;;;2.22;2.03;;;18.60;97.20;;;;;;1714794;28;20194;-68
2022/07/01 07:19:12;;;;;;;2.72;1.55;;;18.60;97.20;;;;;;1718949;28;20216;-68
2022/07/01 07:20:07;;;;;;;1.38;1.00;;;18.60;97.20;;;;;;1721234;28;20201;-68
2022/07/01 07:20:57;;;;;;;1.75;1.23;;;18.60;97.20;;;;;;1718816;28;20206;-68
2022/07/01 07:21:50;;;;;;;1.30;1.10;;;18.60;97.20;;;;;;1714878;28;20201;-68
2022/07/01 07:22:41;;;;;;;1.75;1.23;;;18.60;97.20;;;;;;1714845;28;20213;-68
2022/07/01 07:23:32;;;;;;;2.43;1.10;;;18.60;97.20;;;;;;1721507;28;20225;-68
2022/07/01 07:24:23;;;;;;;1.55;1.00;;;18.60;97.20;;;;;;1715330;28;20206;-68
2022/07/01 07:25:15;;;;;;;1.63;0.97;;;18.60;97.20;;;;;;1714756;28;20224;-68
2022/07/01 07:26:06;;;;;;;3.03;0.95;;;18.60;97.20;;;;;;1717710;28;20196;-68
2022/07/01 07:26:57;;;;;;;1.07;0.73;;;18.60;97.20;;;;;;1718894;28;20197;-68
2022/07/01 07:27:48;;;;;;;1.30;0.75;;;18.60;97.20;;;;;;1714905;28;20202;-68
2022/07/01 07:28:40;;;;;;;1.20;1.00;;;18.60;97.20;;;;;;1721472;28;20297;-68
2022/07/01 07:29:31;;;;;;;1.10;1.00;;;18.60;97.20;;;;;;1721106;28;20209;-68
2022/07/01 07:30:23;;;;;;;1.67;0.87;;;18.60;97.20;;;;;;1716354;28;20221;-68
2022/07/01 07:31:14;;;;;;;0.93;0.82;;;18.60;97.20;;;;;;1714788;28;20704;-68
2022/07/01 07:32:06;;;;;;;1.00;0.87;;;18.50;97.20;;;;;;1717122;28;20683;-68
2022/07/01 07:32:57;;;;;;;1.10;0.75;;;18.50;97.20;;;;;;1719660;28;20197;-68
2022/07/01 07:33:49;;;;;;;2.37;1.10;;;18.50;97.20;;;;;;1714692;28;20280;-68
2022/07/01 07:34:40;;;;;;;1.10;0.80;;;18.50;97.20;;;;;;1714787;28;20221;-68
2022/07/01 07:35:33;;;;;;;1.10;0.83;;;18.50;97.20;;;;;;1719828;28;20213;-68
2022/07/01 07:36:24;;;;;;;1.30;0.88;;;18.50;97.20;;;;;;1720963;28;20515;-69
2022/07/01 07:37:15;;;;;;;0.87;0.70;;;18.50;97.20;;;;;;1717727;28;20194;-68
2022/07/01 07:38:07;;;;;;;1.45;0.95;;;18.60;97.20;;;;;;1715894;28;20221;-68
2022/07/01 07:38:59;;;;;;;1.58;0.73;;;18.60;97.20;;;;;;1720522;28;20221;-68
2022/07/01 07:39:50;;;;;;;1.40;0.88;;;18.60;97.20;;;;;;1714656;28;20241;-68
2022/07/01 07:40:42;;;;;;;1.53;0.90;;;18.60;97.20;;;;;;1721044;28;20205;-68
2022/07/01 07:41:33;;;;;;;1.48;0.88;;;18.60;97.20;;;;;;1715749;28;20294;-68
2022/07/01 07:42:25;;;;;;;1.20;1.00;;;18.60;97.20;;;;;;1718532;28;20247;-68
2022/07/01 07:43:16;;;;;;;1.05;0.80;;;18.60;97.20;;;;;;1721111;28;20193;-68
2022/07/01 07:44:07;;;;;;;0.90;0.70;;;18.60;97.20;;;;;;1719656;28;20288;-68
2022/07/01 07:44:58;;;;;;;1.00;0.70;;;18.60;97.20;;;;;;1714589;28;20217;-68
2022/07/01 07:45:50;;;;;;;1.88;1.08;;;18.60;97.20;;;;;;1721127;28;20208;-68
2022/07/01 07:46:41;;;;;;;1.00;0.90;;;18.70;97.20;;;;;;1715117;28;20557;-68
2022/07/01 07:47:33;;;;;;;1.50;0.83;;;18.70;97.20;;;;;;1719038;28;20280;-68
2022/07/01 07:48:23;;;;;;;1.10;1.00;;;18.70;97.20;;;;;;1717640;28;20205;-68
2022/07/01 07:49:15;;;;;;;1.83;0.73;;;18.70;97.20;;;;;;1716702;28;20723;-68
2022/07/01 07:50:06;;;;;;;1.90;0.90;;;18.70;97.20;;;;;;1720168;28;20665;-68
2022/07/01 07:51:00;;;;;;;0.98;0.80;;;18.70;97.20;;;;;;1714536;28;20202;-69
2022/07/01 07:51:50;;;;;;;0.95;0.85;;;18.70;97.20;;;;;;1714651;28;20213;-68
2022/07/01 07:52:43;;;;;;;1.30;0.80;;;18.60;97.20;;;;;;1719701;28;20288;-68
2022/07/01 07:53:33;;;;;;;1.40;1.02;;;18.60;97.20;;;;;;1716853;28;20961;-68
2022/07/01 07:54:25;;;;;;;1.00;0.80;;;18.60;97.20;;;;;;1717459;28;20732;-68
2022/07/01 07:55:16;;;;;;;2.75;1.10;;;18.60;97.20;;;;;;1719606;28;20225;-68
2022/07/01 07:56:08;;;;;;;0.87;0.80;;;18.60;97.20;;;;;;1714452;28;20201;-68
2022/07/01 07:56:58;;;;;;;1.00;0.80;;;18.60;97.20;;;;;;1714323;28;20205;-68
2022/07/01 07:57:50;;;;;;;1.00;0.90;;;18.60;97.20;;;;;;1720284;28;20208;-68
2022/07/01 07:58:43;;;;;;;1.52;0.80;;;18.60;97.20;;;;;;1716144;28;20202;-68
2022/07/01 07:59:35;;;;;;;1.90;0.90;;;18.60;97.20;;;;;;1718027;28;20575;-68
2022/07/01 08:00:28;;;;;;;1.40;0.80;;;18.60;97.20;;;;;;1721032;28;20688;-68
2022/07/01 08:01:19;;;;;;;1.48;0.70;;;18.60;97.20;;;;;;1719579;28;20610;-68
2022/07/01 08:02:10;;;;;;;1.42;0.82;;;18.60;97.20;;;;;;1714600;28;20654;-68
2022/07/01 08:03:02;;;;;;;4.15;1.40;;;18.60;97.20;;;;;;1715034;28;20202;-68
2022/07/01 08:03:53;;;;;;;1.33;0.80;;;18.60;97.20;;;;;;1720437;28;20204;-68
2022/07/01 08:04:45;;;;;;;1.10;0.80;;;18.60;97.20;;;;;;1720867;28;20284;-68
2022/07/01 08:05:35;;;;;;;1.42;0.70;;;18.60;97.20;;;;;;1720482;28;20313;-68
2022/07/01 08:06:29;;;;;;;1.13;0.73;;;18.60;97.20;;;;;;1720808;28;20778;-68
2022/07/01 08:07:20;;;;;;;1.33;0.70;;;18.60;97.20;;;;;;1719188;28;21008;-68
2022/07/01 08:08:12;;;;;;;2.38;1.10;;;18.60;97.20;;;;;;1714612;28;20248;-68
2022/07/01 08:09:03;;;;;;;0.80;0.65;;;18.50;97.20;;;;;;1721352;28;20685;-68
2022/07/01 08:09:55;;;;;;;1.15;0.90;;;18.50;97.20;;;;;;1714781;28;20277;-69
2022/07/01 08:10:46;;;;;;;1.02;0.85;;;18.50;97.20;;;;;;1714469;28;20680;-68
2022/07/01 08:11:38;;;;;;;0.80;0.70;;;18.50;97.20;;;;;;1718055;28;20652;-68
2022/07/01 08:12:28;;;;;;;1.17;1.00;;;18.50;97.20;;;;;;1720966;28;20201;-68
2022/07/01 08:13:20;;;;;;;1.40;0.80;;;18.50;97.20;;;;;;1719750;28;20237;-68
2022/07/01 08:14:11;;;;;;;1.15;0.90;;;18.50;97.20;;;;;;1714604;28;20198;-68
2022/07/01 08:15:04;;;;;;;1.33;0.90;;;18.50;97.20;;;;;;1714590;28;20288;-68
2022/07/01 08:15:55;;;;;;;0.80;0.60;;;18.50;97.20;;;;;;1720069;28;20574;-68
2022/07/01 08:16:47;;;;;;;1.40;0.88;;;18.50;97.20;;;;;;1720543;28;20217;-68
2022/07/01 08:17:38;;;;;;;0.90;0.68;;;18.50;97.20;;;;;;1717567;28;20205;-68
2022/07/01 08:18:29;;;;;;;0.80;0.70;;;18.40;97.20;;;;;;1714499;28;20284;-68
2022/07/01 08:19:20;;;;;;;1.00;0.70;;;18.40;97.20;;;;;;1714945;28;20208;-68
2022/07/01 08:20:12;;;;;;;0.80;0.70;;;18.40;97.20;;;;;;1721195;28;20295;-68
2022/07/01 08:21:04;;;;;;;2.00;0.80;;;18.30;97.20;;;;;;1720786;28;20210;-68
2022/07/01 08:21:56;;;;;;;1.48;0.80;;;18.30;97.20;;;;;;1716125;28;20202;-68
2022/07/01 08:22:48;;;;;;;1.15;0.82;;;18.30;97.20;;;;;;1717792;28;20319;-68
2022/07/01 08:23:40;;;;;;;2.47;0.90;;;18.30;97.20;;;;;;1718520;28;20348;-68
2022/07/01 08:24:31;;;;;;;2.25;0.80;;;18.30;97.20;;;;;;1715205;28;20215;-68
2022/07/01 08:25:22;;;;;;;1.13;0.90;;;18.30;97.20;;;;;;1720840;28;20219;-68
2022/07/01 08:26:15;;;;;;;2.45;0.82;;;18.30;97.20;;;;;;1720779;28;20213;-68
2022/07/01 08:27:06;;;;;;;0.80;0.63;;;18.30;97.20;;;;;;1715102;28;20253;-68
2022/07/01 08:27:57;;;;;;;2.60;0.82;;;18.30;97.20;;;;;;1718403;28;20205;-68
2022/07/01 08:28:49;;;;;;;1.30;0.70;;;18.30;97.20;;;;;;1718035;28;20286;-68
2022/07/01 08:29:40;;;;;;;1.23;0.80;;;18.30;97.20;;;;;;1715788;28;20220;-68
2022/07/01 08:30:32;;;;;;;2.00;1.10;;;18.40;97.20;;;;;;1720581;28;20288;-68
2022/07/01 08:31:23;;;;;;;2.03;0.90;;;18.40;97.20;;;;;;1714521;28;20468;-68
2022/07/01 08:32:14;;;;;;;1.60;0.80;;;18.40;97.20;;;;;;1714356;28;20209;-68
2022/07/01 08:33:06;;;;;;;1.60;1.07;;;18.40;97.20;;;;;;1718762;28;20276;-68
2022/07/01 08:33:57;;;;;;;2.35;0.93;;;18.40;97.20;;;;;;1720719;28;20216;-68
2022/07/01 08:34:48;;;;;;;2.07;1.20;;;18.40;97.20;;;;;;1718812;28;20209;-68
2022/07/01 08:35:40;;;;;;;3.58;1.15;;;18.40;97.20;;;;;;1714351;28;20476;-68
2022/07/01 08:36:32;;;;;;;1.55;0.90;;;18.40;97.20;;;;;;1714203;28;20233;-68
2022/07/01 08:37:24;;;;;;;1.10;0.82;;;18.40;97.20;;;;;;1714723;28;20206;-68
2022/07/01 08:38:15;;;;;;;1.42;1.05;;;18.40;97.20;;;;;;1714362;28;20590;-68
2022/07/01 08:39:06;;;;;;;1.65;0.80;;;18.40;97.20;;;;;;1718081;28;20572;-68
2022/07/01 08:39:59;;;;;;;1.23;0.80;;;18.30;97.20;;;;;;1720792;28;20308;-68
2022/07/01 08:40:49;;;;;;;1.30;0.80;;;18.30;97.20;;;;;;1719274;28;20767;-68
2022/07/01 08:41:41;;;;;;;1.10;0.73;;;18.30;97.20;;;;;;1714404;28;20665;-68
2022/07/01 08:42:32;;;;;;;0.90;0.70;;;18.30;97.20;;;;;;1714413;28;20209;-68
2022/07/01 08:43:24;;;;;;;1.20;0.90;;;18.30;97.20;;;;;;1719765;28;20280;-68
2022/07/01 08:44:15;;;;;;;1.10;0.88;;;18.20;97.20;;;;;;1716338;28;20445;-68
2022/07/01 08:45:08;;;;;;;1.00;0.80;;;18.30;97.20;;;;;;1717121;28;20246;-68
2022/07/01 08:46:01;;;;;;;1.23;0.95;;;18.20;97.20;;;;;;1720704;28;20656;-68
2022/07/01 08:46:53;;;;;;;1.33;0.73;;;18.30;97.20;;;;;;1719503;28;20825;-68
2022/07/01 08:47:51;;;;;;;1.05;0.80;;;18.20;97.20;;;;;;1713984;28;20236;-68
2022/07/01 08:48:43;;;;;;;0.80;0.80;;;18.20;97.20;;;;;;1714432;28;20209;-68
2022/07/01 08:49:34;;;;;;;1.65;0.70;;;18.20;97.20;;;;;;1720329;28;20581;-68
2022/07/01 08:50:26;;;;;;;1.20;0.83;;;18.20;97.20;;;;;;1720666;28;20618;-68
2022/07/01 08:51:17;;;;;;;0.90;0.77;;;18.20;97.20;;;;;;1716919;28;20584;-68
2022/07/01 08:52:09;;;;;;;1.90;0.83;;;18.20;97.20;;;;;;1714302;28;20256;-68
2022/07/01 08:53:02;;;;;;;1.00;0.70;;;18.20;97.20;;;;;;1715173;28;20341;-68
2022/07/01 08:53:54;;;;;;;1.40;0.82;;;18.10;97.20;;;;;;1720614;28;20216;-68
2022/07/01 08:54:45;;;;;;;1.00;0.80;;;18.10;97.20;;;;;;1720894;28;20596;-68
2022/07/01 08:56:40;;;;;;;1.33;0.80;;;18.10;97.20;;;;;;1714947;28;20296;-68
2022/07/01 08:56:48;;;;;;;1.45;0.80;;;18.10;97.20;;;;;;1713682;28;20925;-68
2022/07/01 08:57:40;;;;;;;2.13;1.20;;;18.10;97.20;;;;;;1714274;28;20659;-68
2022/07/01 08:58:31;;;;;;;1.10;0.90;;;18.10;97.20;;;;;;1714374;28;20660;-68
2022/07/01 08:59:24;;;;;;;1.75;0.90;;;18.10;97.20;;;;;;1717474;28;20728;-67
2022/07/01 09:00:16;;;;;;;1.00;0.90;;;18.10;97.20;;;;;;1718229;28;20206;-68
2022/07/01 09:01:15;;;;;;;1.83;1.30;;;18.10;97.20;;;;;;1715001;28;20256;-68
2022/07/01 09:02:06;;;;;;;1.20;0.80;;;18.10;97.20;;;;;;1719632;28;20201;-68
2022/07/01 09:02:59;;;;;;;1.23;0.83;;;18.10;97.20;;;;;;1714128;28;20202;-68
2022/07/01 09:03:52;;;;;;;1.63;1.02;;;18.10;97.20;;;;;;1720530;28;20209;-68
2022/07/01 09:04:43;;;;;;;2.33;0.90;;;18.10;97.20;;;;;;1720046;28;20236;-68
2022/07/01 09:05:36;;;;;;;2.67;0.95;;;18.10;97.20;;;;;;1716246;28;20226;-68
2022/07/01 09:06:29;;;;;;;2.60;1.20;;;18.20;97.20;;;;;;1714103;28;20548;-68
2022/07/01 09:07:33;;;;;;;1.30;1.10;;;18.20;97.20;;;;;;1715824;28;20209;-68
2022/07/01 09:08:28;;;;;;;1.20;1.00;;;18.20;97.20;;;;;;1720601;28;20316;-68
2022/07/01 09:09:20;;;;;;;1.25;0.85;;;18.30;97.20;;;;;;1718993;28;20686;-68
2022/07/01 09:10:17;;;;;;;1.92;1.20;;;18.30;97.20;;;;;;1714077;28;20659;-68
2022/07/01 09:11:12;;;;;;;1.48;1.00;;;18.30;97.20;;;;;;1713638;28;20237;-68
2022/07/01 09:12:05;;;;;;;1.52;0.90;;;18.30;97.20;;;;;;1713594;28;20226;-68
2022/07/01 09:12:55;;;;;;;1.88;1.00;;;18.30;97.20;;;;;;1719962;28;20193;-68
2022/07/01 09:14:07;;;;;;;2.27;1.07;;;18.30;97.20;;;;;;1720539;28;20285;-68
2022/07/01 09:15:19;;;;;;;1.38;0.90;;;18.30;97.20;;;;;;1714474;28;20240;-68
2022/07/01 09:16:12;;;;;;;2.28;1.10;;;18.30;97.20;;;;;;1713467;28;20692;-68
2022/07/01 09:17:05;;;;;;;1.38;0.95;;;18.30;97.20;;;;;;1713988;28;20671;-68
2022/07/01 09:18:03;;;;;;;1.20;0.82;;;18.40;97.20;;;;;;1713955;28;20202;-68
2022/07/01 09:19:00;;;;;;;1.75;1.00;;;18.40;97.20;;;;;;1718798;28;20201;-68
2022/07/01 09:19:52;;;;;;;3.10;1.35;;;18.40;97.20;;;;;;1715949;28;20206;-68
2022/07/01 09:20:44;;;;;;;1.35;1.25;;;18.40;97.20;;;;;;1717331;28;20201;-69
2022/07/01 09:21:36;;;;;;;1.73;1.10;;;18.40;97.20;;;;;;1720405;28;20234;-68
2022/07/01 09:22:27;;;;;;;1.10;0.80;;;18.40;97.20;;;;;;1719107;28;20205;-68
2022/07/01 09:23:20;;;;;;;1.50;1.00;;;18.40;97.20;;;;;;1713746;28;20197;-68
2022/07/01 09:24:27;;;;;;;2.70;1.10;;;18.40;97.20;;;;;;1714003;28;20586;-68
2022/07/01 09:25:19;;;;;;;1.10;0.80;;;18.40;97.20;;;;;;1714083;28;20218;-68
2022/07/01 09:26:19;;;;;;;1.25;0.80;;;18.40;97.20;;;;;;1713899;28;20213;-67
2022/07/01 09:27:13;;;;;;;1.63;0.90;;;18.40;97.20;;;;;;1719370;28;20193;-68
2022/07/01 09:28:09;;;;;;;1.92;0.80;;;18.40;97.20;;;;;;1717447;28;20628;-68
2022/07/01 09:29:02;;;;;;;1.02;0.90;;;18.40;97.20;;;;;;1714065;28;20732;-71
2022/07/01 09:29:53;;;;;;;1.20;1.10;;;18.30;97.20;;;;;;1714255;28;20225;-68
2022/07/01 09:30:47;;;;;;;1.57;0.80;;;18.30;97.20;;;;;;1714053;28;20202;-68
2022/07/01 09:31:47;;;;;;;2.80;1.98;;;18.30;97.20;;;;;;1715079;28;20214;-67
2022/07/01 09:32:39;;;;;;;5.80;3.30;;;18.30;97.20;;;;;;1718036;28;20197;-68
2022/07/01 09:33:30;;;;;;;2.17;1.50;;;18.30;97.20;;;;;;1714088;28;20649;-67
2022/07/01 09:34:22;;;;;;;4.60;3.17;;;18.30;97.20;;;;;;1717676;28;20740;-67
2022/07/01 09:35:22;;;;;;;4.82;3.22;;;18.30;97.20;;;;;;1714836;28;20456;-67
2022/07/01 09:36:16;;;;;;;10.13;6.20;;;18.30;97.20;;;;;;1713999;28;20285;-67